AAL119 KMCO-UUEE
Flight info
| Callsign | AAL119 |
|---|---|
| Flight time | N/A |
| Altitude | 32000 |
| Route | JEEMY4 PAINN SHRKS KJ06S TEEEM Q99 RAANE FEDOX SANNY MAULS PLDGE LOYDD OGESY Q227 STUBN TYROD SYR Q844 VIBRU REEDO IKLAX KEMVI Q852 DICEN ANCER N817A IRLOK 5550N 5640N 5630N 5620N PIKIL SOVED MIMKU ROBBO SURAT PETIL ROKAM VEDEN M869 LEP M864 DIPOP |
| Aircraft | B77W/H-SDE1E2E3FGHIJ2J3J4J5M1RWXY/LB1D1 |
Departure
| Time | 2026-04-25 14:04 |
|---|---|
| Airport | Orlando International Airport (KMCO) |
Arrival
| Time | N/A |
|---|---|
| Airport | Sheremetyevo International Airport (UUEE) |
| Time | Latitude | Longitude | Altitude | Speed | Heading |
|---|---|---|---|---|---|
| 2026-04-25 13:41 | 28.42684 | -81.31539 | 95 ft | 0 kts | 122° |
| 2026-04-25 13:52 | 28.42691 | -81.31551 | 95 ft | 2 kts | 122° |
| 2026-04-25 13:52 | 28.42698 | -81.31565 | 95 ft | 2 kts | 122° |
| 2026-04-25 13:52 | 28.42706 | -81.31580 | 95 ft | 2 kts | 122° |
| 2026-04-25 13:53 | 28.42714 | -81.31594 | 95 ft | 2 kts | 122° |
| 2026-04-25 13:53 | 28.42722 | -81.31609 | 95 ft | 2 kts | 122° |
| 2026-04-25 13:53 | 28.42731 | -81.31623 | 95 ft | 2 kts | 122° |
| 2026-04-25 13:53 | 28.42739 | -81.31637 | 95 ft | 2 kts | 122° |
| 2026-04-25 13:54 | 28.42747 | -81.31651 | 95 ft | 2 kts | 128° |
| 2026-04-25 13:54 | 28.42758 | -81.31664 | 95 ft | 2 kts | 151° |
| 2026-04-25 13:54 | 28.42769 | -81.31669 | 95 ft | 0 kts | 166° |
| 2026-04-25 13:54 | 28.42773 | -81.31670 | 95 ft | 0 kts | 167° |
| 2026-04-25 13:57 | 28.42765 | -81.31668 | 95 ft | 2 kts | 169° |
| 2026-04-25 13:57 | 28.42744 | -81.31670 | 95 ft | 3 kts | 198° |
| 2026-04-25 13:58 | 28.42717 | -81.31697 | 95 ft | 6 kts | 248° |
| 2026-04-25 13:58 | 28.42710 | -81.31743 | 96 ft | 4 kts | 265° |
| 2026-04-25 13:58 | 28.42708 | -81.31797 | 96 ft | 8 kts | 268° |
| 2026-04-25 13:58 | 28.42708 | -81.31875 | 97 ft | 8 kts | 270° |
| 2026-04-25 13:59 | 28.42708 | -81.31930 | 97 ft | 5 kts | 273° |
| 2026-04-25 13:59 | 28.42713 | -81.31958 | 97 ft | 1 kts | 292° |
| 2026-04-25 13:59 | 28.42742 | -81.31984 | 98 ft | 10 kts | 341° |
| 2026-04-25 13:59 | 28.42843 | -81.31992 | 98 ft | 17 kts | 359° |
| 2026-04-25 14:00 | 28.42989 | -81.31992 | 98 ft | 24 kts | 360° |
| 2026-04-25 14:00 | 28.43177 | -81.31995 | 98 ft | 27 kts | 359° |
| 2026-04-25 14:00 | 28.43372 | -81.31997 | 98 ft | 28 kts | 360° |
| 2026-04-25 14:00 | 28.43575 | -81.31999 | 98 ft | 29 kts | 359° |
| 2026-04-25 14:01 | 28.43782 | -81.32002 | 99 ft | 30 kts | 359° |
| 2026-04-25 14:01 | 28.43979 | -81.32004 | 99 ft | 26 kts | 0° |
| 2026-04-25 14:01 | 28.44156 | -81.32007 | 99 ft | 23 kts | 359° |
| 2026-04-25 14:01 | 28.44312 | -81.32008 | 99 ft | 20 kts | 359° |
| 2026-04-25 14:02 | 28.44448 | -81.32010 | 99 ft | 18 kts | 360° |
| 2026-04-25 14:02 | 28.44568 | -81.32011 | 99 ft | 16 kts | 360° |
| 2026-04-25 14:02 | 28.44664 | -81.32014 | 99 ft | 11 kts | 351° |
| 2026-04-25 14:02 | 28.44689 | -81.32023 | 99 ft | 10 kts | 332° |
| 2026-04-25 14:03 | 28.44716 | -81.32137 | 99 ft | 9 kts | 270° |
| 2026-04-25 14:03 | 28.44705 | -81.32208 | 99 ft | 5 kts | 233° |
| 2026-04-25 14:03 | 28.44673 | -81.32224 | 99 ft | 5 kts | 186° |
| 2026-04-25 14:03 | 28.44661 | -81.32225 | 99 ft | 6 kts | 180° |
| 2026-04-25 14:04 | 28.44378 | -81.32223 | 100 ft | 74 kts | 179° |
| 2026-04-25 14:04 | 28.43624 | -81.32214 | 99 ft | 138 kts | 180° |
| 2026-04-25 14:04 | 28.42475 | -81.32200 | 128 ft | 188 kts | 180° |
| 2026-04-25 14:04 | 28.41143 | -81.32186 | 742 ft | 191 kts | 180° |
| 2026-04-25 14:05 | 28.39817 | -81.32276 | 1482 ft | 192 kts | 192° |
| 2026-04-25 14:05 | 28.38520 | -81.32832 | 1790 ft | 210 kts | 208° |
| 2026-04-25 14:05 | 28.37185 | -81.33662 | 2150 ft | 226 kts | 208° |
| 2026-04-25 14:05 | 28.35762 | -81.34549 | 2568 ft | 242 kts | 212° |
| 2026-04-25 14:06 | 28.34463 | -81.35872 | 2982 ft | 259 kts | 229° |
| 2026-04-25 14:06 | 28.33295 | -81.37451 | 3677 ft | 265 kts | 230° |
| 2026-04-25 14:06 | 28.32118 | -81.39067 | 4427 ft | 268 kts | 230° |
| 2026-04-25 14:06 | 28.30919 | -81.40702 | 5170 ft | 271 kts | 231° |
| 2026-04-25 14:07 | 28.29707 | -81.42349 | 5912 ft | 274 kts | 231° |
| 2026-04-25 14:07 | 28.28479 | -81.44015 | 6616 ft | 277 kts | 231° |
| 2026-04-25 14:07 | 28.27361 | -81.45792 | 6916 ft | 279 kts | 248° |
| 2026-04-25 14:07 | 28.26959 | -81.47926 | 6954 ft | 278 kts | 274° |
| 2026-04-25 14:08 | 28.27392 | -81.50040 | 6977 ft | 277 kts | 291° |
| 2026-04-25 14:08 | 28.28109 | -81.52058 | 6973 ft | 276 kts | 293° |
| 2026-04-25 14:08 | 28.28897 | -81.54063 | 6958 ft | 276 kts | 302° |
| 2026-04-25 14:08 | 28.30228 | -81.55631 | 6998 ft | 284 kts | 330° |
| 2026-04-25 14:09 | 28.32094 | -81.56332 | 7718 ft | 283 kts | 351° |
| 2026-04-25 14:09 | 28.34010 | -81.56607 | 8652 ft | 277 kts | 353° |
| 2026-04-25 14:09 | 28.35923 | -81.56829 | 9349 ft | 279 kts | 353° |
| 2026-04-25 14:09 | 28.37215 | -81.56968 | 9811 ft | 280 kts | 353° |
| 2026-04-25 14:10 | 28.39827 | -81.57240 | 10503 ft | 292 kts | 353° |
| 2026-04-25 14:10 | 28.41939 | -81.57331 | 10796 ft | 310 kts | 6° |
| 2026-04-25 14:10 | 28.44103 | -81.56808 | 11116 ft | 328 kts | 12° |
| 2026-04-25 14:10 | 28.46360 | -81.56139 | 11500 ft | 343 kts | 13° |
| 2026-04-25 14:11 | 28.48705 | -81.55434 | 11911 ft | 357 kts | 13° |
| 2026-04-25 14:11 | 28.51173 | -81.54689 | 12322 ft | 371 kts | 13° |
| 2026-04-25 14:11 | 28.53709 | -81.53923 | 12810 ft | 382 kts | 13° |
| 2026-04-25 14:11 | 28.56301 | -81.53139 | 13481 ft | 387 kts | 13° |
| 2026-04-25 14:12 | 28.58928 | -81.52343 | 14233 ft | 390 kts | 13° |
| 2026-04-25 14:12 | 28.61546 | -81.51550 | 14900 ft | 395 kts | 13° |
| 2026-04-25 14:12 | 28.64237 | -81.50734 | 15544 ft | 401 kts | 13° |
| 2026-04-25 14:12 | 28.66944 | -81.49913 | 16199 ft | 406 kts | 13° |
| 2026-04-25 14:13 | 28.69688 | -81.49080 | 16875 ft | 410 kts | 12° |
| 2026-04-25 14:13 | 28.72484 | -81.48231 | 17510 ft | 415 kts | 12° |
| 2026-04-25 14:13 | 28.75275 | -81.47383 | 18115 ft | 419 kts | 12° |
| 2026-04-25 14:13 | 28.78124 | -81.46516 | 18813 ft | 422 kts | 12° |
| 2026-04-25 14:14 | 28.80955 | -81.45654 | 19488 ft | 424 kts | 12° |
| 2026-04-25 14:14 | 28.83820 | -81.44782 | 20120 ft | 428 kts | 13° |
| 2026-04-25 14:14 | 28.86729 | -81.43895 | 20710 ft | 432 kts | 12° |
| 2026-04-25 14:14 | 28.89625 | -81.43012 | 21351 ft | 434 kts | 13° |
| 2026-04-25 14:15 | 28.92583 | -81.42124 | 21976 ft | 436 kts | 10° |
| 2026-04-25 14:15 | 28.93560 | -81.41899 | 22167 ft | 436 kts | 7° |
| 2026-04-25 14:15 | 28.98641 | -81.41662 | 23030 ft | 439 kts | 354° |
| 2026-04-25 14:15 | 29.01663 | -81.41979 | 23556 ft | 442 kts | 353° |
| 2026-04-25 14:16 | 29.04740 | -81.42325 | 24075 ft | 446 kts | 353° |
| 2026-04-25 14:16 | 29.07879 | -81.42677 | 24598 ft | 449 kts | 353° |
| 2026-04-25 14:16 | 29.10986 | -81.43021 | 25122 ft | 452 kts | 354° |
| 2026-04-25 14:16 | 29.14166 | -81.43328 | 25617 ft | 456 kts | 354° |
| 2026-04-25 14:17 | 29.17349 | -81.43627 | 26095 ft | 459 kts | 354° |
| 2026-04-25 14:17 | 29.20530 | -81.43927 | 26551 ft | 463 kts | 355° |
| 2026-04-25 14:17 | 29.23802 | -81.44236 | 27036 ft | 466 kts | 355° |
| 2026-04-25 14:17 | 29.27015 | -81.44540 | 27493 ft | 469 kts | 355° |
| 2026-04-25 14:18 | 29.30319 | -81.44853 | 27988 ft | 471 kts | 355° |
| 2026-04-25 14:18 | 29.33567 | -81.45161 | 28386 ft | 475 kts | 355° |
| 2026-04-25 14:18 | 29.36890 | -81.45477 | 28781 ft | 479 kts | 355° |
| 2026-04-25 14:18 | 29.40248 | -81.45797 | 29228 ft | 482 kts | 355° |
| 2026-04-25 14:19 | 29.43613 | -81.46118 | 29818 ft | 481 kts | 355° |
| 2026-04-25 14:19 | 29.46963 | -81.46437 | 30505 ft | 477 kts | 355° |
| 2026-04-25 14:19 | 29.50282 | -81.46754 | 30905 ft | 479 kts | 355° |
| 2026-04-25 14:20 | 29.56934 | -81.47390 | 30944 ft | 476 kts | 355° |
| 2026-04-25 14:20 | 29.63505 | -81.47995 | 30945 ft | 475 kts | 355° |
| 2026-04-25 14:21 | 29.70139 | -81.48595 | 30947 ft | 475 kts | 355° |
| 2026-04-25 14:21 | 29.76721 | -81.49191 | 30947 ft | 475 kts | 355° |
| 2026-04-25 14:22 | 29.83320 | -81.49790 | 30948 ft | 474 kts | 355° |
| 2026-04-25 14:22 | 29.89899 | -81.50698 | 30949 ft | 475 kts | 347° |
| 2026-04-25 14:23 | 29.96230 | -81.52869 | 30952 ft | 476 kts | 343° |
| 2026-04-25 14:23 | 30.02547 | -81.55132 | 30950 ft | 475 kts | 343° |
| 2026-04-25 14:24 | 30.08877 | -81.57399 | 30952 ft | 477 kts | 343° |
| 2026-04-25 14:24 | 30.15237 | -81.59679 | 30960 ft | 476 kts | 343° |
| 2026-04-25 14:25 | 30.21527 | -81.61937 | 30958 ft | 475 kts | 343° |
| 2026-04-25 14:25 | 30.27911 | -81.64231 | 30955 ft | 475 kts | 343° |
| 2026-04-25 14:26 | 30.34239 | -81.66508 | 30952 ft | 477 kts | 343° |
| 2026-04-25 14:26 | 30.40580 | -81.68791 | 30951 ft | 477 kts | 343° |
| 2026-04-25 14:27 | 30.46892 | -81.71069 | 30948 ft | 476 kts | 343° |
| 2026-04-25 14:27 | 30.53228 | -81.73357 | 30949 ft | 475 kts | 343° |
| 2026-04-25 14:28 | 30.59569 | -81.75650 | 30946 ft | 476 kts | 343° |
| 2026-04-25 14:28 | 30.65617 | -81.78677 | 30953 ft | 475 kts | 333° |
| 2026-04-25 14:29 | 30.71489 | -81.82304 | 30952 ft | 478 kts | 333° |
| 2026-04-25 14:29 | 30.77352 | -81.85936 | 30949 ft | 476 kts | 333° |
| 2026-04-25 14:30 | 30.83221 | -81.89574 | 30950 ft | 478 kts | 333° |
| 2026-04-25 14:30 | 30.92006 | -81.95028 | 30947 ft | 475 kts | 332° |
| 2026-04-25 14:31 | 30.97993 | -81.98325 | 30945 ft | 477 kts | 342° |
| 2026-04-25 14:31 | 31.04550 | -81.99585 | 30943 ft | 477 kts | 359° |
| 2026-04-25 14:32 | 31.11197 | -81.99187 | 30948 ft | 478 kts | 3° |
| 2026-04-25 14:32 | 31.17806 | -81.98687 | 30947 ft | 477 kts | 3° |
| 2026-04-25 14:33 | 31.24465 | -81.98186 | 30947 ft | 477 kts | 3° |
| 2026-04-25 14:33 | 31.31095 | -81.97690 | 30943 ft | 477 kts | 3° |
| 2026-04-25 14:34 | 31.37710 | -81.97194 | 30946 ft | 477 kts | 3° |
| 2026-04-25 14:34 | 31.44339 | -81.96697 | 30945 ft | 477 kts | 3° |
| 2026-04-25 14:35 | 31.50987 | -81.96199 | 30948 ft | 477 kts | 3° |
| 2026-04-25 14:35 | 31.57629 | -81.95701 | 30949 ft | 477 kts | 2° |
| 2026-04-25 14:36 | 31.64274 | -81.95201 | 30944 ft | 477 kts | 2° |
| 2026-04-25 14:36 | 31.70887 | -81.94704 | 30942 ft | 479 kts | 2° |
| 2026-04-25 14:37 | 31.77536 | -81.94202 | 30934 ft | 477 kts | 2° |
| 2026-04-25 14:37 | 31.84174 | -81.93702 | 30929 ft | 477 kts | 2° |
| 2026-04-25 14:38 | 31.90802 | -81.93201 | 30929 ft | 478 kts | 2° |
| 2026-04-25 14:38 | 31.97440 | -81.92699 | 30929 ft | 477 kts | 2° |
| 2026-04-25 14:39 | 32.04088 | -81.92194 | 30932 ft | 479 kts | 2° |
| 2026-04-25 14:39 | 32.10760 | -81.91673 | 30927 ft | 480 kts | 5° |
| 2026-04-25 14:40 | 32.17229 | -81.89714 | 30937 ft | 484 kts | 22° |
| 2026-04-25 14:40 | 32.23317 | -81.86233 | 30939 ft | 484 kts | 24° |
| 2026-04-25 14:41 | 32.29329 | -81.82700 | 30937 ft | 483 kts | 25° |
| 2026-04-25 14:41 | 32.35369 | -81.79147 | 30932 ft | 485 kts | 24° |
| 2026-04-25 14:42 | 32.40408 | -81.76179 | 30934 ft | 485 kts | 24° |
| 2026-04-25 14:42 | 32.47423 | -81.72041 | 30932 ft | 485 kts | 24° |
| 2026-04-25 14:43 | 32.53478 | -81.68465 | 30933 ft | 486 kts | 24° |
| 2026-04-25 14:43 | 32.59526 | -81.64887 | 30933 ft | 484 kts | 24° |
| 2026-04-25 14:44 | 32.65536 | -81.61327 | 30933 ft | 486 kts | 24° |
| 2026-04-25 14:44 | 32.71583 | -81.57739 | 30930 ft | 486 kts | 24° |
| 2026-04-25 14:45 | 32.77641 | -81.54139 | 30928 ft | 486 kts | 24° |
| 2026-04-25 14:45 | 32.83710 | -81.50526 | 30923 ft | 486 kts | 24° |
| 2026-04-25 14:46 | 32.89733 | -81.46937 | 30914 ft | 486 kts | 24° |
| 2026-04-25 14:46 | 32.95806 | -81.43310 | 30912 ft | 486 kts | 24° |
| 2026-04-25 14:47 | 33.00838 | -81.40302 | 30913 ft | 486 kts | 24° |
| 2026-04-25 14:47 | 33.07906 | -81.36071 | 30916 ft | 487 kts | 24° |
| 2026-04-25 14:48 | 33.13990 | -81.32422 | 30920 ft | 488 kts | 25° |
| 2026-04-25 14:48 | 33.20073 | -81.28767 | 30920 ft | 487 kts | 25° |
| 2026-04-25 14:49 | 33.26140 | -81.25117 | 30919 ft | 487 kts | 25° |
| 2026-04-25 14:49 | 33.32188 | -81.21472 | 30916 ft | 487 kts | 25° |
| 2026-04-25 14:50 | 33.38256 | -81.17811 | 30912 ft | 487 kts | 25° |
| 2026-04-25 14:50 | 33.44296 | -81.14159 | 30905 ft | 487 kts | 25° |
| 2026-04-25 14:51 | 33.50344 | -81.10498 | 30906 ft | 488 kts | 25° |
| 2026-04-25 14:51 | 33.56431 | -81.06807 | 30909 ft | 489 kts | 25° |
| 2026-04-25 14:52 | 33.62463 | -81.03143 | 30907 ft | 488 kts | 25° |
| 2026-04-25 14:52 | 33.67528 | -81.00063 | 30907 ft | 488 kts | 25° |
| 2026-04-25 14:53 | 33.74646 | -80.95727 | 30907 ft | 489 kts | 25° |
| 2026-04-25 14:53 | 33.80717 | -80.92022 | 30908 ft | 490 kts | 25° |
| 2026-04-25 14:54 | 33.86597 | -80.87945 | 30911 ft | 494 kts | 34° |
| 2026-04-25 14:54 | 33.92068 | -80.82877 | 30916 ft | 494 kts | 36° |
| 2026-04-25 14:55 | 33.97499 | -80.77787 | 30916 ft | 492 kts | 36° |
| 2026-04-25 14:55 | 34.02884 | -80.72730 | 30912 ft | 493 kts | 36° |
| 2026-04-25 14:56 | 34.08279 | -80.67653 | 30912 ft | 493 kts | 36° |
| 2026-04-25 14:56 | 34.13760 | -80.62485 | 30917 ft | 495 kts | 36° |
| 2026-04-25 14:57 | 34.19124 | -80.57420 | 30918 ft | 493 kts | 36° |
| 2026-04-25 14:57 | 34.24563 | -80.52276 | 30917 ft | 496 kts | 36° |
| 2026-04-25 14:58 | 34.30003 | -80.47206 | 30918 ft | 494 kts | 35° |
| 2026-04-25 14:58 | 34.35486 | -80.42164 | 30919 ft | 496 kts | 35° |
| 2026-04-25 14:59 | 34.40898 | -80.37172 | 30916 ft | 495 kts | 35° |
| 2026-04-25 14:59 | 34.46421 | -80.32067 | 30912 ft | 495 kts | 35° |
| 2026-04-25 15:00 | 34.51909 | -80.26984 | 30913 ft | 496 kts | 36° |
| 2026-04-25 15:00 | 34.57415 | -80.21874 | 30910 ft | 497 kts | 35° |
| 2026-04-25 15:01 | 34.62891 | -80.16783 | 30909 ft | 497 kts | 35° |
| 2026-04-25 15:01 | 34.68401 | -80.11651 | 30905 ft | 498 kts | 35° |
| 2026-04-25 15:02 | 34.73906 | -80.06527 | 30904 ft | 500 kts | 35° |
| 2026-04-25 15:02 | 34.79426 | -80.01390 | 30904 ft | 500 kts | 35° |
| 2026-04-25 15:03 | 34.84992 | -79.96345 | 30907 ft | 501 kts | 33° |
| 2026-04-25 15:03 | 34.90663 | -79.91366 | 30907 ft | 501 kts | 34° |
| 2026-04-25 15:04 | 34.96279 | -79.86415 | 30907 ft | 501 kts | 34° |
| 2026-04-25 15:04 | 35.01923 | -79.81425 | 30909 ft | 501 kts | 34° |
| 2026-04-25 15:05 | 35.07558 | -79.76430 | 30907 ft | 501 kts | 34° |
| 2026-04-25 15:06 | 35.16566 | -79.70022 | 30905 ft | 496 kts | 16° |
| 2026-04-25 15:06 | 35.23323 | -79.68457 | 30915 ft | 492 kts | 2° |
| 2026-04-25 15:07 | 35.30150 | -79.67731 | 30912 ft | 491 kts | 2° |
| 2026-04-25 15:07 | 35.37030 | -79.67006 | 30906 ft | 491 kts | 2° |
| 2026-04-25 15:08 | 35.43840 | -79.66286 | 30906 ft | 491 kts | 2° |
| 2026-04-25 15:08 | 35.50650 | -79.65563 | 30906 ft | 490 kts | 2° |
| 2026-04-25 15:09 | 35.57473 | -79.64838 | 30908 ft | 491 kts | 2° |
| 2026-04-25 15:09 | 35.67696 | -79.63747 | 30908 ft | 492 kts | 1° |
| 2026-04-25 15:10 | 35.74565 | -79.63013 | 30903 ft | 493 kts | 1° |
| 2026-04-25 15:11 | 35.84827 | -79.61914 | 30894 ft | 495 kts | 1° |
| 2026-04-25 15:11 | 35.91696 | -79.61176 | 30889 ft | 494 kts | 1° |
| 2026-04-25 15:12 | 36.01996 | -79.60242 | 30893 ft | 496 kts | 358° |
| 2026-04-25 15:12 | 36.06617 | -79.60048 | 30895 ft | 495 kts | 358° |
| 2026-04-25 15:13 | 36.19256 | -79.59486 | 30894 ft | 494 kts | 358° |
| 2026-04-25 15:14 | 36.26174 | -79.59163 | 30895 ft | 495 kts | 358° |
| 2026-04-25 15:14 | 36.33029 | -79.58839 | 30890 ft | 496 kts | 358° |
| 2026-04-25 15:15 | 36.39919 | -79.58509 | 30888 ft | 495 kts | 358° |
| 2026-04-25 15:15 | 36.46833 | -79.58176 | 30887 ft | 496 kts | 358° |
| 2026-04-25 15:16 | 36.53691 | -79.57845 | 30883 ft | 496 kts | 358° |
| 2026-04-25 15:16 | 36.64035 | -79.57345 | 30892 ft | 497 kts | 358° |
| 2026-04-25 15:17 | 36.74377 | -79.56841 | 30895 ft | 495 kts | 358° |
| 2026-04-25 15:18 | 36.81263 | -79.56506 | 30893 ft | 497 kts | 358° |
| 2026-04-25 15:18 | 36.91668 | -79.55998 | 30892 ft | 497 kts | 358° |
| 2026-04-25 15:19 | 36.97415 | -79.55717 | 30892 ft | 497 kts | 358° |
| 2026-04-25 15:19 | 37.05441 | -79.54247 | 30892 ft | 504 kts | 7° |
| 2026-04-25 15:20 | 37.12313 | -79.52492 | 30892 ft | 501 kts | 7° |
| 2026-04-25 15:20 | 37.19203 | -79.50735 | 30896 ft | 504 kts | 7° |
| 2026-04-25 15:21 | 37.26098 | -79.48974 | 30893 ft | 503 kts | 7° |
| 2026-04-25 15:21 | 37.32968 | -79.47218 | 30901 ft | 504 kts | 7° |
| 2026-04-25 15:22 | 37.39814 | -79.45465 | 30912 ft | 503 kts | 7° |
| 2026-04-25 15:22 | 37.46701 | -79.43700 | 30924 ft | 503 kts | 7° |
| 2026-04-25 15:23 | 37.53553 | -79.41940 | 30927 ft | 503 kts | 7° |
| 2026-04-25 15:23 | 37.60398 | -79.40179 | 30926 ft | 504 kts | 7° |
| 2026-04-25 15:24 | 37.67264 | -79.38409 | 30923 ft | 503 kts | 7° |
| 2026-04-25 15:24 | 37.73001 | -79.36929 | 30919 ft | 505 kts | 7° |
| 2026-04-25 15:25 | 37.81025 | -79.34852 | 30915 ft | 503 kts | 8° |
| 2026-04-25 15:25 | 37.87839 | -79.32682 | 30900 ft | 509 kts | 18° |
| 2026-04-25 15:26 | 37.94179 | -79.28533 | 30903 ft | 515 kts | 27° |
| 2026-04-25 15:26 | 38.00360 | -79.23968 | 30902 ft | 514 kts | 27° |
| 2026-04-25 15:27 | 38.06546 | -79.19392 | 30905 ft | 516 kts | 27° |
| 2026-04-25 15:28 | 38.15830 | -79.12508 | 30909 ft | 515 kts | 27° |
| 2026-04-25 15:28 | 38.22043 | -79.07893 | 30901 ft | 516 kts | 27° |
| 2026-04-25 15:29 | 38.28253 | -79.03271 | 30901 ft | 516 kts | 27° |
| 2026-04-25 15:29 | 38.34425 | -78.98667 | 30890 ft | 514 kts | 27° |
| 2026-04-25 15:30 | 38.40612 | -78.94045 | 30899 ft | 517 kts | 27° |
| 2026-04-25 15:30 | 38.46776 | -78.89429 | 30902 ft | 516 kts | 27° |
| 2026-04-25 15:31 | 38.52987 | -78.84771 | 30885 ft | 517 kts | 27° |
| 2026-04-25 15:31 | 38.59174 | -78.80119 | 30887 ft | 516 kts | 27° |
| 2026-04-25 15:32 | 38.65366 | -78.75456 | 30893 ft | 517 kts | 27° |
| 2026-04-25 15:32 | 38.71519 | -78.70812 | 30893 ft | 518 kts | 27° |
| 2026-04-25 15:33 | 38.80835 | -78.63763 | 30902 ft | 516 kts | 27° |
| 2026-04-25 15:33 | 38.87013 | -78.59076 | 30903 ft | 516 kts | 26° |
| 2026-04-25 15:34 | 38.93166 | -78.54400 | 30896 ft | 518 kts | 27° |
| 2026-04-25 15:34 | 38.98338 | -78.50461 | 30903 ft | 516 kts | 27° |
| 2026-04-25 15:35 | 39.08638 | -78.42596 | 30909 ft | 516 kts | 27° |
| 2026-04-25 15:36 | 39.17867 | -78.35317 | 30911 ft | 518 kts | 31° |
| 2026-04-25 15:36 | 39.23789 | -78.29887 | 30908 ft | 522 kts | 32° |
| 2026-04-25 15:37 | 39.29673 | -78.24461 | 30907 ft | 519 kts | 32° |
| 2026-04-25 15:37 | 39.35528 | -78.19056 | 30902 ft | 520 kts | 32° |
| 2026-04-25 15:38 | 39.41427 | -78.13601 | 30909 ft | 520 kts | 32° |
| 2026-04-25 15:38 | 39.47331 | -78.08130 | 30916 ft | 522 kts | 32° |
| 2026-04-25 15:39 | 39.53179 | -78.02698 | 30917 ft | 520 kts | 32° |
| 2026-04-25 15:39 | 39.59066 | -77.97221 | 30923 ft | 521 kts | 32° |
| 2026-04-25 15:40 | 39.62976 | -77.93576 | 30921 ft | 520 kts | 32° |
| 2026-04-25 15:40 | 39.70816 | -77.86253 | 30927 ft | 520 kts | 32° |
| 2026-04-25 15:41 | 39.76687 | -77.80853 | 30925 ft | 518 kts | 27° |
| 2026-04-25 15:41 | 39.83161 | -77.77112 | 30938 ft | 509 kts | 12° |
| 2026-04-25 15:42 | 39.90004 | -77.74598 | 30933 ft | 508 kts | 11° |
| 2026-04-25 15:42 | 39.96811 | -77.72121 | 30933 ft | 509 kts | 11° |
| 2026-04-25 15:43 | 40.03607 | -77.69639 | 30931 ft | 508 kts | 11° |
| 2026-04-25 15:43 | 40.10422 | -77.67142 | 30933 ft | 510 kts | 11° |
| 2026-04-25 15:44 | 40.17214 | -77.64644 | 30929 ft | 507 kts | 11° |
| 2026-04-25 15:44 | 40.24077 | -77.62118 | 31354 ft | 515 kts | 11° |
| 2026-04-25 15:45 | 40.27525 | -77.60843 | 32137 ft | 509 kts | 11° |
| 2026-04-25 15:45 | 40.30864 | -77.59607 | 32825 ft | 504 kts | 11° |
| 2026-04-25 15:45 | 40.36474 | -77.57530 | 32927 ft | 500 kts | 10° |
| 2026-04-25 15:46 | 40.44304 | -77.54627 | 32931 ft | 497 kts | 10° |
| 2026-04-25 15:46 | 40.51089 | -77.52106 | 32931 ft | 499 kts | 11° |
| 2026-04-25 15:47 | 40.57760 | -77.49620 | 32944 ft | 497 kts | 10° |
| 2026-04-25 15:47 | 40.64433 | -77.47130 | 32942 ft | 498 kts | 10° |
| 2026-04-25 15:48 | 40.71142 | -77.44621 | 32961 ft | 499 kts | 10° |
| 2026-04-25 15:48 | 40.77862 | -77.42302 | 32949 ft | 494 kts | 7° |
| 2026-04-25 15:49 | 40.84569 | -77.40359 | 32942 ft | 495 kts | 7° |
| 2026-04-25 15:49 | 40.91284 | -77.38389 | 32932 ft | 494 kts | 7° |
| 2026-04-25 15:50 | 40.97993 | -77.36402 | 32923 ft | 497 kts | 7° |
| 2026-04-25 15:50 | 41.04738 | -77.34392 | 32913 ft | 496 kts | 7° |
| 2026-04-25 15:51 | 41.10288 | -77.32731 | 32915 ft | 497 kts | 8° |
| 2026-04-25 15:51 | 41.18238 | -77.30344 | 32933 ft | 496 kts | 8° |
| 2026-04-25 15:52 | 41.25015 | -77.28303 | 32938 ft | 497 kts | 7° |
| 2026-04-25 15:52 | 41.31773 | -77.26262 | 32939 ft | 496 kts | 7° |
| 2026-04-25 15:53 | 41.38530 | -77.24218 | 32946 ft | 498 kts | 7° |
| 2026-04-25 15:53 | 41.45318 | -77.22158 | 32948 ft | 495 kts | 7° |
| 2026-04-25 15:54 | 41.52120 | -77.20093 | 32934 ft | 499 kts | 7° |
| 2026-04-25 15:54 | 41.58903 | -77.18025 | 32932 ft | 497 kts | 7° |
| 2026-04-25 15:55 | 41.65725 | -77.15942 | 32926 ft | 497 kts | 7° |
| 2026-04-25 15:55 | 41.72582 | -77.13844 | 32931 ft | 498 kts | 7° |
| 2026-04-25 15:56 | 41.79351 | -77.11765 | 32925 ft | 499 kts | 7° |
| 2026-04-25 15:56 | 41.86112 | -77.09682 | 32920 ft | 497 kts | 7° |
| 2026-04-25 15:57 | 41.92953 | -77.07569 | 32930 ft | 500 kts | 7° |
| 2026-04-25 15:57 | 41.99750 | -77.05463 | 32936 ft | 498 kts | 7° |
| 2026-04-25 15:58 | 42.06519 | -77.03361 | 32936 ft | 500 kts | 8° |
| 2026-04-25 15:58 | 42.13063 | -77.00025 | 32952 ft | 509 kts | 21° |
| 2026-04-25 15:59 | 42.19420 | -76.95761 | 32946 ft | 509 kts | 21° |
| 2026-04-25 15:59 | 42.25750 | -76.91493 | 32947 ft | 510 kts | 21° |
| 2026-04-25 16:00 | 42.29993 | -76.88630 | 32943 ft | 511 kts | 21° |
| 2026-04-25 16:00 | 42.38436 | -76.82919 | 32955 ft | 509 kts | 21° |
| 2026-04-25 16:01 | 42.44761 | -76.78633 | 32954 ft | 509 kts | 21° |
| 2026-04-25 16:01 | 42.51001 | -76.74035 | 32958 ft | 510 kts | 26° |
| 2026-04-25 16:02 | 42.57043 | -76.69048 | 32961 ft | 511 kts | 26° |
| 2026-04-25 16:02 | 42.63160 | -76.64019 | 32962 ft | 510 kts | 26° |
| 2026-04-25 16:03 | 42.69237 | -76.59038 | 32960 ft | 512 kts | 26° |
| 2026-04-25 16:03 | 42.75322 | -76.54050 | 32949 ft | 511 kts | 26° |
| 2026-04-25 16:04 | 42.81405 | -76.49060 | 32953 ft | 510 kts | 26° |
| 2026-04-25 16:04 | 42.87526 | -76.44032 | 32956 ft | 511 kts | 25° |
| 2026-04-25 16:05 | 42.93621 | -76.39014 | 32970 ft | 509 kts | 25° |
| 2026-04-25 16:06 | 43.02730 | -76.31498 | 32968 ft | 510 kts | 26° |
| 2026-04-25 16:06 | 43.08800 | -76.26474 | 32979 ft | 511 kts | 26° |
| 2026-04-25 16:07 | 43.14955 | -76.21870 | 32984 ft | 501 kts | 16° |
| 2026-04-25 16:07 | 43.21445 | -76.19611 | 32992 ft | 486 kts | 1° |
| 2026-04-25 16:08 | 43.28254 | -76.18571 | 32994 ft | 490 kts | 0° |
| 2026-04-25 16:08 | 43.35008 | -76.17554 | 32995 ft | 487 kts | 0° |
| 2026-04-25 16:09 | 43.41719 | -76.16537 | 32990 ft | 487 kts | 0° |
| 2026-04-25 16:09 | 43.48530 | -76.15499 | 32988 ft | 488 kts | 0° |
| 2026-04-25 16:10 | 43.55250 | -76.14469 | 32987 ft | 486 kts | 0° |
| 2026-04-25 16:10 | 43.62004 | -76.13432 | 32987 ft | 487 kts | 0° |
| 2026-04-25 16:11 | 43.68762 | -76.12391 | 32991 ft | 486 kts | 0° |
| 2026-04-25 16:11 | 43.75559 | -76.11341 | 32989 ft | 486 kts | 0° |
| 2026-04-25 16:12 | 43.82290 | -76.10300 | 32995 ft | 489 kts | 0° |
| 2026-04-25 16:12 | 43.89033 | -76.09251 | 33004 ft | 485 kts | 0° |
| 2026-04-25 16:13 | 43.95746 | -76.08209 | 33012 ft | 487 kts | 0° |
| 2026-04-25 16:13 | 44.02459 | -76.07160 | 33011 ft | 483 kts | 0° |
| 2026-04-25 16:14 | 44.09129 | -76.06119 | 33013 ft | 485 kts | 0° |
| 2026-04-25 16:14 | 44.15843 | -76.05066 | 33015 ft | 484 kts | 0° |
| 2026-04-25 16:15 | 44.22588 | -76.04009 | 33023 ft | 487 kts | 0° |
| 2026-04-25 16:15 | 44.29327 | -76.02948 | 33024 ft | 487 kts | 0° |
| 2026-04-25 16:16 | 44.36025 | -76.01925 | 33029 ft | 483 kts | 359° |
| 2026-04-25 16:16 | 44.42760 | -76.01197 | 33028 ft | 484 kts | 358° |
| 2026-04-25 16:17 | 44.49447 | -76.00475 | 33037 ft | 485 kts | 358° |
| 2026-04-25 16:17 | 44.56259 | -75.99731 | 33040 ft | 495 kts | 359° |
| 2026-04-25 16:18 | 44.63126 | -75.98970 | 33039 ft | 496 kts | 359° |
| 2026-04-25 16:18 | 44.70000 | -75.97452 | 33039 ft | 507 kts | 11° |
| 2026-04-25 16:19 | 44.76453 | -75.93295 | 33047 ft | 517 kts | 24° |
| 2026-04-25 16:19 | 44.82654 | -75.88262 | 33049 ft | 516 kts | 25° |
| 2026-04-25 16:20 | 44.91982 | -75.80669 | 33061 ft | 517 kts | 25° |
| 2026-04-25 16:21 | 45.00970 | -75.72195 | 33065 ft | 528 kts | 39° |
| 2026-04-25 16:21 | 45.06114 | -75.64811 | 33069 ft | 530 kts | 41° |
| 2026-04-25 16:22 | 45.11239 | -75.57310 | 33077 ft | 528 kts | 40° |
| 2026-04-25 16:22 | 45.16328 | -75.49845 | 33079 ft | 526 kts | 40° |
| 2026-04-25 16:23 | 45.21418 | -75.42362 | 33092 ft | 526 kts | 40° |
| 2026-04-25 16:23 | 45.26393 | -75.34796 | 33092 ft | 527 kts | 46° |
| 2026-04-25 16:24 | 45.30951 | -75.26593 | 33075 ft | 529 kts | 47° |
| 2026-04-25 16:24 | 45.35488 | -75.18333 | 33072 ft | 527 kts | 47° |
| 2026-04-25 16:25 | 45.39991 | -75.10123 | 33078 ft | 529 kts | 47° |
| 2026-04-25 16:25 | 45.44498 | -75.01897 | 33079 ft | 526 kts | 46° |
| 2026-04-25 16:26 | 45.49021 | -74.93742 | 33080 ft | 526 kts | 46° |
| 2026-04-25 16:26 | 45.53536 | -74.85587 | 33077 ft | 528 kts | 46° |
| 2026-04-25 16:27 | 45.58049 | -74.77400 | 33084 ft | 523 kts | 46° |
| 2026-04-25 16:27 | 45.62527 | -74.69257 | 33086 ft | 524 kts | 46° |
| 2026-04-25 16:28 | 45.67024 | -74.61056 | 33078 ft | 523 kts | 46° |
| 2026-04-25 16:28 | 45.71501 | -74.52866 | 33080 ft | 525 kts | 46° |
| 2026-04-25 16:29 | 45.75964 | -74.44675 | 33082 ft | 522 kts | 46° |
| 2026-04-25 16:29 | 45.80410 | -74.36494 | 33088 ft | 521 kts | 46° |
| 2026-04-25 16:30 | 45.84826 | -74.28339 | 33082 ft | 523 kts | 46° |
| 2026-04-25 16:30 | 45.89206 | -74.20223 | 33087 ft | 517 kts | 46° |
| 2026-04-25 16:31 | 45.93629 | -74.12009 | 33087 ft | 519 kts | 46° |
| 2026-04-25 16:31 | 45.98032 | -74.03803 | 33081 ft | 517 kts | 46° |
| 2026-04-25 16:32 | 46.02390 | -73.95658 | 33081 ft | 514 kts | 46° |
| 2026-04-25 16:32 | 46.06738 | -73.87509 | 33082 ft | 515 kts | 46° |
| 2026-04-25 16:33 | 46.11090 | -73.79322 | 33092 ft | 514 kts | 46° |
| 2026-04-25 16:33 | 46.15376 | -73.71236 | 33100 ft | 514 kts | 46° |
| 2026-04-25 16:34 | 46.19699 | -73.63055 | 33103 ft | 511 kts | 45° |
| 2026-04-25 16:34 | 46.24004 | -73.54888 | 33099 ft | 512 kts | 46° |
| 2026-04-25 16:35 | 46.28283 | -73.46744 | 33100 ft | 512 kts | 45° |
| 2026-04-25 16:35 | 46.32567 | -73.38567 | 33100 ft | 510 kts | 45° |
| 2026-04-25 16:36 | 46.36656 | -73.30174 | 33090 ft | 514 kts | 50° |
| 2026-04-25 16:36 | 46.40418 | -73.21531 | 33086 ft | 515 kts | 51° |
| 2026-04-25 16:37 | 46.44202 | -73.12797 | 33088 ft | 513 kts | 50° |
| 2026-04-25 16:37 | 46.47984 | -73.04046 | 33088 ft | 512 kts | 50° |
| 2026-04-25 16:38 | 46.51766 | -72.95277 | 33090 ft | 514 kts | 50° |
| 2026-04-25 16:38 | 46.55534 | -72.86511 | 33089 ft | 513 kts | 50° |
| 2026-04-25 16:39 | 46.59295 | -72.77734 | 33092 ft | 513 kts | 50° |
| 2026-04-25 16:39 | 46.63046 | -72.68954 | 33092 ft | 512 kts | 50° |
| 2026-04-25 16:40 | 46.66786 | -72.60170 | 33088 ft | 508 kts | 50° |
| 2026-04-25 16:40 | 46.70519 | -72.51382 | 33087 ft | 510 kts | 50° |
| 2026-04-25 16:41 | 46.74204 | -72.42667 | 33087 ft | 507 kts | 50° |
| 2026-04-25 16:41 | 46.79844 | -72.29521 | 33076 ft | 503 kts | 46° |
| 2026-04-25 16:42 | 46.84433 | -72.21975 | 33079 ft | 496 kts | 39° |
| 2026-04-25 16:42 | 46.89148 | -72.14689 | 33074 ft | 494 kts | 39° |
| 2026-04-25 16:43 | 46.93879 | -72.07346 | 33071 ft | 492 kts | 39° |
| 2026-04-25 16:43 | 46.98573 | -72.00032 | 33062 ft | 493 kts | 39° |
| 2026-04-25 16:44 | 47.03240 | -71.92733 | 33059 ft | 489 kts | 39° |
| 2026-04-25 16:44 | 47.07906 | -71.85416 | 33062 ft | 491 kts | 40° |
| 2026-04-25 16:45 | 47.12540 | -71.78127 | 33078 ft | 491 kts | 40° |
| 2026-04-25 16:45 | 47.17230 | -71.70725 | 33075 ft | 487 kts | 40° |
| 2026-04-25 16:46 | 47.21856 | -71.63407 | 33070 ft | 489 kts | 40° |
| 2026-04-25 16:46 | 47.24923 | -71.58545 | 33065 ft | 489 kts | 41° |
| 2026-04-25 16:47 | 47.31050 | -71.48801 | 33055 ft | 487 kts | 41° |
| 2026-04-25 16:47 | 47.35641 | -71.41478 | 33051 ft | 487 kts | 41° |
| 2026-04-25 16:48 | 47.40262 | -71.34086 | 33055 ft | 487 kts | 43° |
| 2026-04-25 16:48 | 47.44850 | -71.26726 | 33052 ft | 485 kts | 43° |
| 2026-04-25 16:49 | 47.49423 | -71.19370 | 33055 ft | 486 kts | 43° |
| 2026-04-25 16:49 | 47.53967 | -71.12039 | 33052 ft | 486 kts | 43° |
| 2026-04-25 16:50 | 47.58535 | -71.04652 | 33047 ft | 485 kts | 44° |
| 2026-04-25 16:50 | 47.63100 | -70.97247 | 33053 ft | 484 kts | 44° |
| 2026-04-25 16:51 | 47.67625 | -70.89886 | 33043 ft | 484 kts | 44° |
| 2026-04-25 16:51 | 47.71395 | -70.83738 | 33064 ft | 484 kts | 44° |
| 2026-04-25 16:52 | 47.76660 | -70.75128 | 33062 ft | 484 kts | 45° |
| 2026-04-25 16:52 | 47.81144 | -70.67774 | 33078 ft | 483 kts | 45° |
| 2026-04-25 16:53 | 47.87898 | -70.56658 | 33091 ft | 483 kts | 45° |
| 2026-04-25 16:54 | 47.92372 | -70.49268 | 33083 ft | 483 kts | 45° |
| 2026-04-25 16:54 | 47.96846 | -70.41859 | 33065 ft | 481 kts | 45° |
| 2026-04-25 16:55 | 48.01335 | -70.34403 | 33071 ft | 483 kts | 46° |
| 2026-04-25 16:55 | 48.05724 | -70.27092 | 33080 ft | 482 kts | 46° |
| 2026-04-25 16:56 | 48.10213 | -70.19594 | 33094 ft | 481 kts | 46° |
| 2026-04-25 16:56 | 48.14685 | -70.12103 | 33123 ft | 481 kts | 45° |
| 2026-04-25 16:57 | 48.19130 | -70.04637 | 33122 ft | 480 kts | 45° |
| 2026-04-25 16:57 | 48.23573 | -69.97155 | 33139 ft | 480 kts | 46° |
| 2026-04-25 16:58 | 48.27999 | -69.89677 | 33134 ft | 480 kts | 46° |
| 2026-04-25 16:58 | 48.32406 | -69.82212 | 33131 ft | 479 kts | 45° |
| 2026-04-25 16:59 | 48.36813 | -69.74725 | 33119 ft | 478 kts | 45° |
| 2026-04-25 16:59 | 48.41222 | -69.67213 | 33121 ft | 479 kts | 45° |
| 2026-04-25 17:00 | 48.45603 | -69.59730 | 33124 ft | 477 kts | 46° |
| 2026-04-25 17:00 | 48.49959 | -69.52266 | 33120 ft | 477 kts | 45° |
| 2026-04-25 17:01 | 48.54327 | -69.44760 | 33121 ft | 476 kts | 45° |
| 2026-04-25 17:01 | 48.58711 | -69.37354 | 33125 ft | 474 kts | 44° |
| 2026-04-25 17:02 | 48.63093 | -69.30127 | 33122 ft | 475 kts | 45° |
| 2026-04-25 17:02 | 48.67554 | -69.22737 | 33132 ft | 474 kts | 45° |
| 2026-04-25 17:03 | 48.71960 | -69.15411 | 33134 ft | 474 kts | 45° |
| 2026-04-25 17:03 | 48.76368 | -69.08057 | 33125 ft | 473 kts | 45° |
| 2026-04-25 17:04 | 48.80759 | -69.00706 | 33128 ft | 472 kts | 45° |
| 2026-04-25 17:04 | 48.85161 | -68.93317 | 33132 ft | 472 kts | 45° |
| 2026-04-25 17:05 | 48.89543 | -68.85939 | 33126 ft | 472 kts | 45° |
| 2026-04-25 17:05 | 48.96104 | -68.74854 | 33123 ft | 471 kts | 45° |
| 2026-04-25 17:06 | 49.00478 | -68.67437 | 33121 ft | 470 kts | 45° |
| 2026-04-25 17:06 | 49.04836 | -68.60027 | 33130 ft | 471 kts | 45° |
| 2026-04-25 17:07 | 49.09199 | -68.52588 | 33125 ft | 472 kts | 45° |
| 2026-04-25 17:07 | 49.13578 | -68.45099 | 33137 ft | 472 kts | 45° |
| 2026-04-25 17:08 | 49.17829 | -68.37807 | 33137 ft | 472 kts | 45° |
| 2026-04-25 17:08 | 49.22194 | -68.30300 | 33140 ft | 472 kts | 46° |
| 2026-04-25 17:09 | 49.26558 | -68.22772 | 33129 ft | 471 kts | 46° |
| 2026-04-25 17:09 | 49.30896 | -68.15268 | 33124 ft | 472 kts | 46° |
| 2026-04-25 17:10 | 49.35237 | -68.07738 | 33117 ft | 473 kts | 46° |
| 2026-04-25 17:10 | 49.39575 | -68.00190 | 33118 ft | 473 kts | 46° |
| 2026-04-25 17:11 | 49.43924 | -67.92600 | 33101 ft | 474 kts | 46° |
| 2026-04-25 17:11 | 49.48242 | -67.85044 | 33093 ft | 473 kts | 46° |
| 2026-04-25 17:12 | 49.52570 | -67.77447 | 33096 ft | 472 kts | 46° |
| 2026-04-25 17:12 | 49.56904 | -67.69818 | 33097 ft | 475 kts | 46° |
| 2026-04-25 17:13 | 49.59781 | -67.64742 | 33097 ft | 474 kts | 46° |
| 2026-04-25 17:13 | 49.65533 | -67.54561 | 33092 ft | 474 kts | 46° |
| 2026-04-25 17:14 | 49.69849 | -67.46896 | 33094 ft | 474 kts | 46° |
| 2026-04-25 17:14 | 49.74140 | -67.39255 | 33097 ft | 474 kts | 46° |
| 2026-04-25 17:15 | 49.78469 | -67.31520 | 33101 ft | 474 kts | 47° |
| 2026-04-25 17:15 | 49.82774 | -67.23808 | 33091 ft | 474 kts | 47° |
| 2026-04-25 17:16 | 49.87066 | -67.16094 | 33087 ft | 473 kts | 47° |
| 2026-04-25 17:16 | 49.91342 | -67.08388 | 33096 ft | 474 kts | 47° |
| 2026-04-25 17:17 | 49.95594 | -67.00701 | 33099 ft | 473 kts | 47° |
| 2026-04-25 17:17 | 49.99878 | -66.92934 | 33110 ft | 473 kts | 47° |
| 2026-04-25 17:18 | 50.04132 | -66.85199 | 33100 ft | 472 kts | 47° |
| 2026-04-25 17:18 | 50.08374 | -66.77460 | 33092 ft | 473 kts | 47° |
| 2026-04-25 17:19 | 50.12629 | -66.69678 | 33096 ft | 473 kts | 47° |
| 2026-04-25 17:19 | 50.16871 | -66.61894 | 33099 ft | 472 kts | 47° |
| 2026-04-25 17:20 | 50.21123 | -66.54069 | 33091 ft | 472 kts | 47° |
| 2026-04-25 17:20 | 50.25367 | -66.46233 | 33100 ft | 472 kts | 47° |
| 2026-04-25 17:21 | 50.29621 | -66.38359 | 33098 ft | 482 kts | 47° |
| 2026-04-25 17:21 | 50.33952 | -66.30313 | 33099 ft | 482 kts | 48° |
| 2026-04-25 17:22 | 50.37563 | -66.23588 | 33091 ft | 482 kts | 49° |
| 2026-04-25 17:22 | 50.42610 | -66.14158 | 33086 ft | 482 kts | 49° |
| 2026-04-25 17:23 | 50.46903 | -66.06110 | 33075 ft | 482 kts | 49° |
| 2026-04-25 17:23 | 50.51183 | -65.98061 | 33068 ft | 482 kts | 49° |
| 2026-04-25 17:24 | 50.55465 | -65.89983 | 33057 ft | 481 kts | 49° |
| 2026-04-25 17:24 | 50.59733 | -65.81906 | 33061 ft | 481 kts | 49° |
| 2026-04-25 17:25 | 50.64006 | -65.73795 | 33044 ft | 480 kts | 49° |
| 2026-04-25 17:25 | 50.68260 | -65.65694 | 33037 ft | 480 kts | 49° |
| 2026-04-25 17:26 | 50.72492 | -65.57611 | 33040 ft | 480 kts | 49° |
| 2026-04-25 17:26 | 50.76736 | -65.49477 | 33034 ft | 480 kts | 49° |
| 2026-04-25 17:27 | 50.80985 | -65.41311 | 33031 ft | 479 kts | 49° |
| 2026-04-25 17:27 | 50.83806 | -65.35873 | 33039 ft | 478 kts | 49° |
| 2026-04-25 17:28 | 50.89439 | -65.24984 | 33082 ft | 478 kts | 50° |
| 2026-04-25 17:28 | 50.93634 | -65.16842 | 33070 ft | 477 kts | 50° |
| 2026-04-25 17:29 | 50.97841 | -65.08652 | 33058 ft | 477 kts | 50° |
| 2026-04-25 17:29 | 51.02028 | -65.00475 | 33047 ft | 476 kts | 50° |
| 2026-04-25 17:30 | 51.06174 | -64.92354 | 33021 ft | 475 kts | 50° |
| 2026-04-25 17:30 | 51.10323 | -64.84199 | 33051 ft | 474 kts | 50° |
| 2026-04-25 17:31 | 51.14427 | -64.76110 | 33054 ft | 474 kts | 50° |
| 2026-04-25 17:31 | 51.18592 | -64.67873 | 33050 ft | 471 kts | 50° |
| 2026-04-25 17:32 | 51.22695 | -64.59733 | 33032 ft | 472 kts | 50° |
| 2026-04-25 17:32 | 51.26815 | -64.51533 | 33010 ft | 470 kts | 50° |
| 2026-04-25 17:33 | 51.30904 | -64.43369 | 32990 ft | 469 kts | 50° |
| 2026-04-25 17:33 | 51.34964 | -64.35238 | 32988 ft | 469 kts | 50° |
| 2026-04-25 17:34 | 51.39050 | -64.27027 | 33002 ft | 469 kts | 50° |
| 2026-04-25 17:34 | 51.43132 | -64.18799 | 33020 ft | 469 kts | 50° |
| 2026-04-25 17:35 | 51.47180 | -64.10613 | 33033 ft | 468 kts | 50° |
| 2026-04-25 17:35 | 51.51223 | -64.02413 | 33032 ft | 468 kts | 50° |
| 2026-04-25 17:36 | 51.55248 | -63.94222 | 33035 ft | 466 kts | 50° |
| 2026-04-25 17:36 | 51.59272 | -63.86006 | 33054 ft | 467 kts | 50° |
| 2026-04-25 17:37 | 51.63284 | -63.77789 | 33029 ft | 466 kts | 50° |
| 2026-04-25 17:37 | 51.67266 | -63.69608 | 33056 ft | 467 kts | 50° |
| 2026-04-25 17:38 | 51.70593 | -63.62751 | 33039 ft | 465 kts | 51° |
| 2026-04-25 17:38 | 51.75223 | -63.53180 | 33036 ft | 464 kts | 51° |
| 2026-04-25 17:39 | 51.79158 | -63.45017 | 33039 ft | 464 kts | 51° |
| 2026-04-25 17:39 | 51.83122 | -63.36768 | 33042 ft | 464 kts | 51° |
| 2026-04-25 17:40 | 51.87049 | -63.28567 | 33036 ft | 463 kts | 52° |
| 2026-04-25 17:40 | 51.91002 | -63.20289 | 33037 ft | 463 kts | 52° |
| 2026-04-25 17:41 | 51.94941 | -63.12012 | 33046 ft | 462 kts | 52° |
| 2026-04-25 17:41 | 51.98845 | -63.03782 | 33057 ft | 461 kts | 52° |
| 2026-04-25 17:42 | 52.02771 | -62.95478 | 33055 ft | 461 kts | 52° |
| 2026-04-25 17:42 | 52.06678 | -62.87190 | 33048 ft | 460 kts | 52° |
| 2026-04-25 17:43 | 52.10545 | -62.78959 | 33042 ft | 460 kts | 52° |
| 2026-04-25 17:43 | 52.14439 | -62.70643 | 33050 ft | 459 kts | 52° |
| 2026-04-25 17:44 | 52.18286 | -62.62401 | 33059 ft | 458 kts | 52° |
| 2026-04-25 17:44 | 52.22069 | -62.54271 | 33049 ft | 457 kts | 52° |
| 2026-04-25 17:45 | 52.24616 | -62.48782 | 33063 ft | 458 kts | 52° |
| 2026-04-25 17:45 | 52.29719 | -62.37750 | 33055 ft | 455 kts | 52° |
| 2026-04-25 17:46 | 52.33523 | -62.29494 | 33067 ft | 456 kts | 53° |
| 2026-04-25 17:46 | 52.37349 | -62.21165 | 33057 ft | 455 kts | 53° |
| 2026-04-25 17:47 | 52.41143 | -62.12879 | 33061 ft | 454 kts | 53° |
| 2026-04-25 17:47 | 52.44904 | -62.04636 | 33058 ft | 454 kts | 53° |
| 2026-04-25 17:48 | 52.50559 | -61.92193 | 33053 ft | 451 kts | 53° |
| 2026-04-25 17:49 | 52.54299 | -61.83931 | 33069 ft | 451 kts | 53° |
| 2026-04-25 17:49 | 52.58032 | -61.75658 | 33060 ft | 450 kts | 53° |
| 2026-04-25 17:50 | 52.61756 | -61.67376 | 33064 ft | 451 kts | 53° |
| 2026-04-25 17:50 | 52.65469 | -61.59095 | 33063 ft | 448 kts | 53° |
| 2026-04-25 17:51 | 52.69170 | -61.50811 | 33070 ft | 449 kts | 53° |
| 2026-04-25 17:51 | 52.72847 | -61.42554 | 33073 ft | 448 kts | 53° |
| 2026-04-25 17:52 | 52.76521 | -61.34279 | 33081 ft | 448 kts | 53° |
| 2026-04-25 17:52 | 52.80233 | -61.25888 | 33074 ft | 447 kts | 54° |
| 2026-04-25 17:53 | 52.83889 | -61.17598 | 33081 ft | 447 kts | 53° |
| 2026-04-25 17:53 | 52.87570 | -61.09223 | 33089 ft | 447 kts | 53° |
| 2026-04-25 17:54 | 52.89994 | -61.03693 | 33080 ft | 446 kts | 53° |